Madrid, Nebraska
Current Conditions -  °F | °C
As of 3:15 AM on Friday 19 Dec 2014 (Local Time) from KOGA Reporting Station
Clear Clear  
Wind Chill: 14°   Ceiling: Unl
Heat Index: 14°   Visibility: 10mi
Dew Point: 12°   Wind: 0mph
Humidity: 93%   Direction: NA
Pressure: 30.08"   Gusts: NA
Location:  40.85°N, 101.54°W
Report Text: KOGA 191015Z AUTO 00000KT 10SM CLR M10/M11 A3008 RMK AO2 T11011111
Loading
Personal Weather Stations






























Interactive Weather Map New forecast layout! Learn more

10-Day Weather Forecast

Advertisements
Track Severe Weather on mobile